• Join FlightAware (Why Join?)
  • Login
  • US Flag 
09:29AM EST


 

Airport Tracker/Info


-or-


 

Live Flight TrackerFlight Track Log ✈ CSN3614 ✈ 02-Sep-2013 ✈ ZYMD / MDG - ZSPD / PVG

Flight Track Log - Related Links

Times and Time Zones

All times are in EDT time to prevent confusion due to time zone crossing. See the CSN3614 flight status page for this flight to view local times or setup timezone preferences in your user account.

Time Position Orientation Groundspeed Altitude Reporting Facility
EDT Latitude Longitude Course Direction KTS MPH feet Rate Location/Type
04:51AM 44.4319 129.5028 207° Southwest  Level Estimated
04:52AM 44.3397 129.4369 207° Southwest  Level Estimated
04:52AM 43.5830 127.9610 207° Southwest 355 409 33,000  Level FlightAware
04:52AM 43.5590 127.9520 195° South 360 414 33,300 480 Climbing FlightAware
04:53AM 44.2475 129.3712 207° Southwest  Level Estimated
04:53AM 43.4920 127.9380 189° South 363 418 33,500  Level FlightAware
04:54AM 43.4540 127.8960 219° Southwest 367 422 33,700 360 Climbing FlightAware
04:54AM 43.4370 127.8530 241° Southwest 376 433 33,800 300 Climbing FlightAware
04:55AM 43.4260 127.7650 260° West 397 457 34,000 240 Climbing FlightAware
04:55AM 43.4400 127.6830 283° West 421 484 34,100 60 Climbing FlightAware
04:56AM 43.4750 127.6030 301° West 427 491 34,100  Level FlightAware
04:56AM 43.5120 127.5230 303° West 423 487 34,100  Level FlightAware
04:57AM 43.5470 127.4490 303° West 426 490 34,100  Level FlightAware
04:57AM 43.5830 127.3710 303° West 426 490 34,100  Level FlightAware
04:58AM 43.6160 127.3010 303° West 426 490 34,100  Level FlightAware
04:59AM 43.6490 127.2310 303° West 426 490 34,100  Level FlightAware
04:59AM 43.6820 127.1610 303° West 426 490 34,100  Level FlightAware
05:00AM 43.7150 127.0890 302° West 426 490 34,100  Level FlightAware
05:00AM 43.7480 127.0190 303° West 426 490 34,100  Level FlightAware
05:01AM 43.7810 126.9490 303° West 426 490 34,100  Level FlightAware
05:02AM 43.8160 126.8750 303° West 426 490 34,100  Level FlightAware
05:02AM 43.8490 126.8050 303° West 426 490 34,100  Level FlightAware
05:03AM 43.8810 126.7350 302° West 426 490 34,100  Level FlightAware
05:03AM 43.9160 126.6610 303° West 426 490 34,100  Level FlightAware
05:04AM 43.9490 126.5910 303° West 426 490 34,100  Level FlightAware
05:05AM 43.9820 126.5200 303° West 426 490 34,100  Level FlightAware
05:05AM 44.0150 126.4500 303° West 426 490 34,100  Level FlightAware
05:06AM 44.0470 126.3800 302° West 426 490 34,100  Level FlightAware
05:06AM 44.0800 126.3090 303° West 426 490 34,100 -60 Level FlightAware
05:09AM 43.8785 126.2242 197° South  Level Estimated
05:10AM 43.7794 126.1826 197° South  Level Estimated
05:11AM 43.6802 126.1413 197° South  Level Estimated
05:12AM 43.5811 126.1000 197° South  Level Estimated
05:13AM 43.4819 126.0589 197° South  Level Estimated
05:14AM 43.3828 126.0179 197° South  Level Estimated
05:15AM 43.2836 125.9771 197° South  Level Estimated
05:16AM 43.1844 125.9364 197° South  Level Estimated
05:17AM 43.0851 125.8958 197° South  Level Estimated
05:18AM 42.9859 125.8554 197° South  Level Estimated
05:19AM 42.8867 125.8151 197° South  Level Estimated
05:20AM 42.7874 125.7749 197° South  Level Estimated
05:21AM 42.6881 125.7348 197° South  Level Estimated
05:22AM 42.5888 125.6949 196° South  Level Estimated
05:23AM 42.4895 125.6551 196° South  Level Estimated
05:24AM 42.3902 125.6155 196° South  Level Estimated
05:25AM 42.2909 125.5759 196° South  Level Estimated
05:26AM 42.1915 125.5365 196° South  Level Estimated
05:27AM 42.0922 125.4972 196° South  Level Estimated
05:28AM 41.9928 125.4580 196° South  Level Estimated
05:29AM 41.8934 125.4190 196° South  Level Estimated
05:30AM 41.7940 125.3800 196° South  Level Estimated
05:31AM 41.6946 125.3412 196° South  Level Estimated
05:32AM 41.5951 125.3025 196° South  Level Estimated
05:33AM 41.4957 125.2640 196° South  Level Estimated
05:34AM 41.3963 125.2255 196° South  Level Estimated
05:35AM 41.2968 125.1872 196° South  Level Estimated
05:36AM 41.1973 125.1490 196° South  Level Estimated
05:37AM 41.0978 125.1109 196° South  Level Estimated
05:38AM 40.9983 125.0729 196° South  Level Estimated
05:39AM 40.8988 125.0350 196° South  Level Estimated
05:40AM 40.7993 124.9972 196° South  Level Estimated
05:41AM 40.6997 124.9596 196° South  Level Estimated
05:42AM 40.6002 124.9221 196° South  Level Estimated
05:43AM 40.5006 124.8846 196° South  Level Estimated
05:44AM 40.4010 124.8473 196° South  Level Estimated
05:45AM 40.3014 124.8101 196° South  Level Estimated
05:46AM 40.2019 124.7730 196° South  Level Estimated
05:47AM 40.1022 124.7361 196° South  Level Estimated
05:48AM 40.0026 124.6992 196° South  Level Estimated
05:49AM 39.9030 124.6624 196° South  Level Estimated
05:50AM 39.8033 124.6257 196° South  Level Estimated
05:51AM 39.7037 124.5892 196° South  Level Estimated
05:52AM 39.6040 124.5527 196° South  Level Estimated
05:53AM 39.5043 124.5164 196° South  Level Estimated
05:54AM 39.4046 124.4802 196° South  Level Estimated
05:55AM 39.3049 124.4440 196° South  Level Estimated
05:56AM 39.2052 124.4080 196° South  Level Estimated
05:57AM 39.1055 124.3721 196° South  Level Estimated
05:58AM 39.0057 124.3362 196° South  Level Estimated
05:59AM 38.9060 124.3005 196° South  Level Estimated
06:00AM 38.8062 124.2649 196° South  Level Estimated
06:01AM 38.7065 124.2293 196° South  Level Estimated
06:02AM 38.6067 124.1939 196° South  Level Estimated
06:03AM 38.5069 124.1586 195° South  Level Estimated
06:04AM 38.4071 124.1234 195° South  Level Estimated
06:05AM 38.3073 124.0882 195° South  Level Estimated
06:06AM 38.2075 124.0532 195° South  Level Estimated
06:07AM 38.1076 124.0182 195° South  Level Estimated
06:08AM 38.0078 123.9834 195° South  Level Estimated
06:09AM 37.9079 123.9486 195° South  Level Estimated
06:10AM 37.8081 123.9140 195° South  Level Estimated
06:11AM 37.7082 123.8794 195° South  Level Estimated
06:12AM 37.6083 123.8449 195° South  Level Estimated
06:13AM 37.5084 123.8105 195° South  Level Estimated
06:14AM 37.4085 123.7763 195° South  Level Estimated
06:15AM 37.3086 123.7421 195° South  Level Estimated
06:16AM 37.2087 123.7079 195° South  Level Estimated
06:17AM 37.1088 123.6739 195° South  Level Estimated
06:18AM 37.0088 123.6400 195° South  Level Estimated
06:19AM 36.9089 123.6061 195° South  Level Estimated
06:20AM 36.8089 123.5724 195° South  Level Estimated
06:21AM 36.7090 123.5387 195° South  Level Estimated
06:22AM 36.6090 123.5052 195° South  Level Estimated
06:23AM 36.5090 123.4717 195° South  Level Estimated
06:24AM 36.4090 123.4383 195° South  Level Estimated
06:25AM 36.3090 123.4050 195° South  Level Estimated
06:26AM 36.2090 123.3717 195° South  Level Estimated
06:27AM 36.1089 123.3386 195° South  Level Estimated
06:28AM 36.0089 123.3055 195° South  Level Estimated
06:29AM 35.9088 123.2726 195° South  Level Estimated
06:30AM 35.8088 123.2397 195° South  Level Estimated
06:31AM 35.7087 123.2068 195° South  Level Estimated
06:32AM 35.6087 123.1741 195° South  Level Estimated
06:33AM 35.5086 123.1415 195° South  Level Estimated
06:34AM 35.4085 123.1089 195° South  Level Estimated
06:35AM 35.3084 123.0764 195° South  Level Estimated
06:36AM 35.2083 123.0440 195° South  Level Estimated
06:37AM 35.1082 123.0117 195° South  Level Estimated
06:38AM 35.0080 122.9794 195° South  Level Estimated
06:39AM 34.9079 122.9473 195° South  Level Estimated
06:40AM 34.8078 122.9152 195° South  Level Estimated
06:41AM 34.7076 122.8832 195° South  Level Estimated
06:42AM 34.6075 122.8512 195° South  Level Estimated
06:43AM 34.5073 122.8194 195° South  Level Estimated
06:44AM 34.4071 122.7876 195° South  Level Estimated
06:45AM 34.3069 122.7559 195° South  Level Estimated
06:46AM 34.2067 122.7243 195° South  Level Estimated
06:47AM 34.1065 122.6927 195° South  Level Estimated
06:48AM 34.0063 122.6612 195° South  Level Estimated
06:49AM 33.9061 122.6299 195° South  Level Estimated
06:50AM 33.8059 122.5985 195° South  Level Estimated
06:51AM 33.7057 122.5673 195° South  Level Estimated
06:52AM 33.6054 122.5361 195° South  Level Estimated
06:52AM 32.7530 122.1160 195° South 488 562 29,900  Level FlightAware
06:52AM 32.6830 122.1500 158° South 485 558 29,300 -1,020 Descending FlightAware
06:53AM 32.5910 122.1940 158° South 480 552 28,600 -720 Descending FlightAware
06:54AM 32.5090 122.2330 158° South 478 550 28,300 -1,020 Descending FlightAware
06:54AM 32.4380 122.2670 158° South 470 541 27,400 -1,260 Descending FlightAware
06:55AM 32.3650 122.3020 158° South 486 559 26,900 -1,020 Descending FlightAware
06:56AM 32.4950 122.2400 338° Northwest 463 533 26,100 -1,020 Descending FlightAware
06:56AM 32.1910 122.3840 158° South 446 513 25,400 -960 Descending FlightAware
06:57AM 32.1300 122.4130 158° South 441 507 24,900 -900 Descending FlightAware
06:57AM 32.0680 122.4420 158° South 437 503 24,400 -1,260 Descending FlightAware
06:58AM 31.9990 122.4750 158° South 428 493 23,400 -1,920 Descending FlightAware
06:59AM 31.9140 122.5140 159° South 415 478 21,900 -1,680 Descending FlightAware
06:59AM 31.8560 122.5420 158° South 389 448 21,200 -960 Descending FlightAware
07:00AM 31.8010 122.5680 158° South 362 417 20,800 -1,020 Descending FlightAware
07:01AM 31.7490 122.5920 159° South 353 406 20,000 -1,680 Descending FlightAware
07:01AM 31.6960 122.6160 159° South 350 403 18,900 -960 Descending FlightAware
07:02AM 31.6470 122.6400 157° South 350 403 18,900  Level FlightAware
07:02AM 31.6010 122.6620 158° South 350 403 18,900  Level FlightAware
07:03AM 31.5550 122.6840 158° South 350 403 18,900  Level FlightAware
07:04AM 31.5090 122.7050 159° South 350 403 18,900  Level FlightAware
07:04AM 31.4630 122.7270 158° South 350 403 18,900  Level FlightAware
07:05AM 31.4160 122.7490 158° South 350 403 18,900 -3,600 Level FlightAware
07:06AM 31.3480 122.3290 259° West 10,800 -4,800 Descending FlightAware
07:07AM 31.3200 122.2960 225° Southwest 305 351 10,200 -1,500 Descending FlightAware
07:07AM 31.3070 122.2810 225° Southwest 300 345 9,800 -1,800 Descending FlightAware
07:07AM 31.2850 122.2660 210° Southwest 300 345 9,300 -1,620 Descending FlightAware
07:07AM 31.2570 122.2500 206° Southwest 297 342 8,700 -1,680 Descending FlightAware
07:08AM 31.2270 122.2350 203° Southwest 297 342 8,000 -1,800 Descending FlightAware
07:08AM 31.2040 122.2230 204° Southwest 299 344 7,500 -1,980 Descending FlightAware
07:08AM 31.1790 122.2100 204° Southwest 300 345 6,900 -1,920 Descending FlightAware
07:09AM 31.1550 122.1970 205° Southwest 301 346 6,300 -1,740 Descending FlightAware
07:09AM 31.1220 122.1800 204° Southwest 298 343 5,600 -1,500 Descending FlightAware
07:09AM 31.1040 122.1710 203° Southwest 291 335 5,300 -1,560 Descending FlightAware
07:10AM 31.0780 122.1560 206° Southwest 289 333 4,700 -1,200 Descending FlightAware
07:10AM 31.0550 122.1440 204° Southwest 283 326 4,500 -300 Descending FlightAware
07:11AM 31.0270 122.1280 206° Southwest 283 326 4,500 -600 Level FlightAware
07:11AM 30.9860 122.1050 206° Southwest 237 273 3,900 -840 Descending FlightAware
07:12AM 30.9620 122.0910 207° Southwest 221 254 3,700 -720 Descending FlightAware
07:12AM 30.9530 122.0850 210° Southwest 219 252 3,500 -840 Descending FlightAware
07:12AM 30.9490 122.0810 221° Southwest 218 251 3,500  Level FlightAware
07:12AM 30.9340 122.0620 227° Southwest 218 251 3,500 -1,020 Level FlightAware
07:12AM 30.9250 122.0460 237° Southwest 213 245 2,900 -1,560 Descending FlightAware
07:13AM 30.9140 122.0290 233° Southwest 195 224 2,700 -780 Descending FlightAware
07:13AM 30.9040 122.0140 232° Southwest 195 224 2,400 -1,200 Descending FlightAware
07:13AM 30.9010 122.0060 246° West 195 224 2,200 -1,800 Descending FlightAware
07:13AM 30.9010 122.0020 270° West 190 219 2,100 -540 Descending FlightAware
07:14AM 30.9060 121.9830 287° West 179 206 2,000 -180 Descending FlightAware
07:14AM 30.9120 121.9640 290° West 180 207 2,000  Level FlightAware
07:14AM 30.9180 121.9470 292° West 175 201 2,000  Level FlightAware
07:14AM 30.9250 121.9350 304° West 171 197 2,000  Level FlightAware
07:15AM 30.9350 121.9160 302° West 173 199 2,000  Level FlightAware
07:15AM 30.9450 121.9010 308° West 171 197 2,000  Level FlightAware
07:15AM 30.9480 121.8970 311° West 167 192 2,000  Level FlightAware
07:16AM 30.9580 121.8900 329° Northwest 163 188 2,000  Level FlightAware
07:16AM 30.9720 121.8830 337° Northwest 153 176 2,000  Level FlightAware
07:16AM 30.9820 121.8780 337° Northwest 154 177 2,000  Level FlightAware
07:16AM 30.9960 121.8730 343° North 152 175 2,000  Level FlightAware
07:17AM 31.0100 121.8680 343° North 136 157 2,000 120 Level FlightAware
07:17AM 31.0210 121.8640 343° North 124 143 2,100 -300 Climbing FlightAware
07:18AM 31.0360 121.8580 341° North 134 154 1,800 -600 Descending FlightAware
07:18AM 31.0450 121.8550 344° North 123 142 1,700 -600 Descending FlightAware
07:18AM 31.0600 121.8490 341° North 123 142 1,400 -480 Descending FlightAware
07:19AM 31.0790 121.8420 342° North 124 143 1,200 -660 Descending FlightAware
07:19AM 31.0960 121.8350 341° North 124 143 700 -1,020 Descending FlightAware
07:20AM 31.1110 121.8300 344° North 122 140 400 -360 Descending FlightAware
07:20AM 31.1240 121.8250 342° North 122 140 400  Level FlightAware
07:23AM 31.1428 121.7924 304° West  Level Estimated
07:24AM 31.1428 121.7924 221° Southwest  Level Estimated
07:25AM 31.1428 121.7924 221° Southwest  Level Estimated
07:26AM 31.1428 121.7924 221° Southwest  Level Estimated
07:27AM 31.1428 121.7924 221° Southwest  Level Estimated
07:28AM 31.1428 121.7924 221° Southwest  Level Estimated